Time;durP1;ratioP1;P1;durP2;ratioP2;P2;SDS_P1;SDS_P2;PMS_P1;PMS_P2;Temp;Humidity;BMP_temperature;BMP_pressure;BME280_temperature;BME280_humidity;BME280_pressure;Samples;Min_cycle;Max_cycle;Signal;HPM_P1;HPM_P2
2023/01/06 00:01:18;;;;;;;67.50;20.85;;;9.00;99.90;;;;;;5063382;28;20057;-71
2023/01/06 00:03:47;;;;;;;73.55;20.52;;;9.00;99.90;;;;;;5063521;28;20021;-69
2023/01/06 00:06:13;;;;;;;68.15;21.55;;;9.00;99.90;;;;;;5063672;28;20086;-71
2023/01/06 00:08:39;;;;;;;82.35;24.45;;;9.00;99.90;;;;;;5045463;28;20029;-70
2023/01/06 00:11:10;;;;;;;79.25;24.05;;;9.00;99.90;;;;;;5045325;28;20028;-70
2023/01/06 00:13:36;;;;;;;73.15;25.20;;;9.00;99.90;;;;;;5063470;28;20044;-69
2023/01/06 00:16:08;;;;;;;71.57;24.73;;;9.00;99.90;;;;;;5045452;28;20029;-69
2023/01/06 00:18:33;;;;;;;89.75;27.52;;;9.00;99.90;;;;;;5045519;28;20037;-70
2023/01/06 00:20:59;;;;;;;86.20;25.58;;;9.00;99.90;;;;;;5063722;28;20024;-68
2023/01/06 00:23:25;;;;;;;73.88;22.95;;;9.00;99.90;;;;;;5063203;28;20116;-69
2023/01/06 00:25:51;;;;;;;84.05;26.83;;;9.00;99.90;;;;;;5062770;28;20028;-71
2023/01/06 00:28:17;;;;;;;75.82;25.98;;;9.00;99.90;;;;;;5045725;28;20063;-69
2023/01/06 00:30:43;;;;;;;91.85;27.65;;;9.00;99.90;;;;;;5062919;28;20025;-70
2023/01/06 00:33:08;;;;;;;91.63;28.90;;;9.00;99.90;;;;;;5063285;28;20044;-70
2023/01/06 00:35:34;;;;;;;97.28;28.52;;;9.00;99.90;;;;;;5063486;28;20035;-68
2023/01/06 00:38:00;;;;;;;94.22;28.85;;;9.00;99.90;;;;;;5062617;28;20115;-69
2023/01/06 00:40:25;;;;;;;93.95;28.30;;;9.10;99.90;;;;;;5045223;28;20020;-69
2023/01/06 00:42:51;;;;;;;87.25;29.13;;;9.10;99.90;;;;;;5062683;28;20021;-71
2023/01/06 00:45:16;;;;;;;89.82;27.40;;;9.10;99.90;;;;;;5063251;28;20060;-69
2023/01/06 00:47:42;;;;;;;101.57;30.10;;;9.10;99.90;;;;;;5062495;28;20084;-70
2023/01/06 00:50:08;;;;;;;105.93;30.15;;;9.10;99.90;;;;;;5063045;28;20044;-69
2023/01/06 00:52:33;;;;;;;97.22;29.58;;;9.10;99.90;;;;;;5063033;28;20849;-70
2023/01/06 00:54:59;;;;;;;105.28;30.88;;;9.10;99.90;;;;;;5044551;28;20021;-69
2023/01/06 00:57:25;;;;;;;99.68;30.83;;;9.10;99.90;;;;;;5062868;28;20123;-68
2023/01/06 00:59:51;;;;;;;98.00;31.40;;;9.10;99.90;;;;;;5062472;28;20017;-68
2023/01/06 01:02:17;;;;;;;116.10;32.78;;;9.20;99.90;;;;;;5062735;28;20509;-69
2023/01/06 01:04:42;;;;;;;99.68;31.90;;;9.10;99.90;;;;;;5062871;28;20059;-69
2023/01/06 01:07:09;;;;;;;93.63;31.33;;;9.10;99.90;;;;;;5062502;28;20025;-69
2023/01/06 01:09:35;;;;;;;97.05;31.40;;;9.10;99.90;;;;;;5061284;28;20017;-68
2023/01/06 01:12:13;;;;;;;100.13;31.45;;;9.20;99.90;;;;;;5062081;28;20028;-69
2023/01/06 01:14:50;;;;;;;109.07;31.40;;;9.10;99.90;;;;;;5062603;28;20029;-70
2023/01/06 01:17:19;;;;;;;111.93;31.52;;;9.10;99.90;;;;;;5062369;28;20032;-70
2023/01/06 01:19:45;;;;;;;102.72;32.67;;;9.20;99.90;;;;;;5044272;28;20025;-71
2023/01/06 01:22:11;;;;;;;103.55;33.00;;;9.20;99.90;;;;;;5044372;28;20157;-71
2023/01/06 01:24:38;;;;;;;111.40;34.33;;;9.20;99.90;;;;;;5061910;28;20124;-70
2023/01/06 01:27:03;;;;;;;106.00;34.00;;;9.20;99.90;;;;;;5044267;28;20060;-72
2023/01/06 01:29:29;;;;;;;101.22;31.88;;;9.20;99.90;;;;;;5061937;28;20021;-70
2023/01/06 01:31:55;;;;;;;94.13;32.38;;;9.20;99.90;;;;;;5060884;28;20033;-70
2023/01/06 01:34:21;;;;;;;106.70;31.95;;;9.20;99.90;;;;;;5061609;28;20024;-71
2023/01/06 01:36:48;;;;;;;104.05;32.60;;;9.20;99.90;;;;;;5062100;28;20033;-70
2023/01/06 01:39:16;;;;;;;117.93;35.25;;;9.20;99.90;;;;;;5062172;28;20024;-71
2023/01/06 01:41:42;;;;;;;104.97;36.30;;;9.20;99.90;;;;;;5044418;28;20021;-70
2023/01/06 01:44:45;;;;;;;118.00;33.45;;;9.30;99.90;;;;;;5062161;28;20107;-72
2023/01/06 01:47:15;;;;;;;103.93;31.52;;;9.30;99.90;;;;;;5061644;28;20021;-70
2023/01/06 01:49:45;;;;;;;121.15;34.80;;;9.30;99.90;;;;;;5044048;28;20037;-69
2023/01/06 01:52:12;;;;;;;110.28;33.83;;;9.30;99.90;;;;;;5061835;28;20033;-69
2023/01/06 01:54:39;;;;;;;108.40;35.50;;;9.30;99.90;;;;;;5044221;28;20040;-69
2023/01/06 01:57:20;;;;;;;109.40;35.80;;;9.30;99.90;;;;;;5061434;28;20041;-70
2023/01/06 01:59:46;;;;;;;103.55;34.38;;;9.30;99.90;;;;;;5061091;28;20057;-69
2023/01/06 02:02:14;;;;;;;106.00;35.05;;;9.30;99.90;;;;;;5061220;28;20079;-70
2023/01/06 02:04:43;;;;;;;101.40;33.22;;;9.30;99.90;;;;;;5061222;28;20028;-69
2023/01/06 02:07:09;;;;;;;98.07;35.05;;;9.30;99.90;;;;;;5061114;28;20029;-70
2023/01/06 02:10:17;;;;;;;89.50;32.22;;;9.30;99.90;;;;;;5061562;28;20067;-69
2023/01/06 02:12:45;;;;;;;102.28;34.97;;;9.30;99.90;;;;;;5061210;28;20025;-70
2023/01/06 02:15:14;;;;;;;96.45;32.67;;;9.30;99.90;;;;;;5043410;28;20033;-69
2023/01/06 02:18:00;;;;;;;109.70;35.83;;;9.30;99.90;;;;;;5061224;28;20064;-70
2023/01/06 02:20:59;;;;;;;103.90;34.05;;;9.30;99.90;;;;;;5061616;28;20037;-69
2023/01/06 02:23:36;;;;;;;118.60;37.47;;;9.30;99.90;;;;;;5060914;28;20053;-69
2023/01/06 02:26:32;;;;;;;125.28;38.08;;;9.40;99.90;;;;;;5060946;28;20049;-68
2023/01/06 02:29:39;;;;;;;129.00;36.60;;;9.40;99.90;;;;;;5060880;28;20029;-70
2023/01/06 02:32:15;;;;;;;108.78;33.70;;;9.30;99.90;;;;;;5061177;28;20020;-69
2023/01/06 02:35:17;;;;;;;103.65;34.55;;;9.40;99.90;;;;;;5060019;28;20029;-69
2023/01/06 02:38:09;;;;;;;107.32;35.30;;;9.40;99.90;;;;;;5041811;28;20044;-71
2023/01/06 02:40:55;;;;;;;122.03;37.88;;;9.40;99.90;;;;;;5031223;28;20100;-69
2023/01/06 02:43:45;;;;;;;114.85;34.78;;;9.40;99.90;;;;;;5049013;28;20048;-70
2023/01/06 02:46:25;;;;;;;127.30;35.60;;;9.40;99.90;;;;;;5059113;28;20032;-70
2023/01/06 02:49:20;;;;;;;111.50;37.80;;;9.40;99.90;;;;;;5059155;28;20021;-71
2023/01/06 02:52:16;;;;;;;116.93;37.35;;;9.40;99.90;;;;;;5036093;28;20052;-71
2023/01/06 02:54:47;;;;;;;131.77;38.00;;;9.40;99.90;;;;;;5060260;28;20033;-72
2023/01/06 02:57:15;;;;;;;116.47;37.13;;;9.40;99.90;;;;;;5060059;28;20144;-71
2023/01/06 03:00:01;;;;;;;119.68;37.80;;;9.40;99.90;;;;;;5058984;28;20052;-70
2023/01/06 03:02:29;;;;;;;121.68;37.50;;;9.40;99.90;;;;;;5041787;28;20096;-71
2023/01/06 03:04:57;;;;;;;115.60;38.28;;;9.40;99.90;;;;;;5059763;28;20021;-70
2023/01/06 03:07:25;;;;;;;116.50;37.88;;;9.40;99.90;;;;;;5059486;28;20104;-71
2023/01/06 03:09:53;;;;;;;99.03;35.22;;;9.40;99.90;;;;;;5059071;28;20089;-72
2023/01/06 03:12:46;;;;;;;110.18;36.67;;;9.40;99.90;;;;;;5041311;28;20029;-70
2023/01/06 03:15:11;;;;;;;98.95;34.33;;;9.50;99.90;;;;;;5052440;28;20041;-69
2023/01/06 03:17:37;;;;;;;104.43;33.55;;;9.50;99.90;;;;;;5040980;28;20036;-68
2023/01/06 03:20:06;;;;;;;81.38;32.72;;;9.60;99.90;;;;;;5059678;28;20028;-70
2023/01/06 03:22:34;;;;;;;75.95;29.77;;;9.60;99.90;;;;;;5058907;28;20052;-70
2023/01/06 03:25:00;;;;;;;79.78;30.48;;;9.70;99.90;;;;;;5058612;28;20061;-71
2023/01/06 03:27:26;;;;;;;76.72;29.63;;;9.70;99.90;;;;;;5041400;28;20025;-69
2023/01/06 03:29:52;;;;;;;67.35;26.88;;;9.70;99.90;;;;;;5059380;28;20025;-71
2023/01/06 03:32:27;;;;;;;67.45;27.83;;;9.70;99.90;;;;;;5060501;28;20036;-72
2023/01/06 03:35:05;;;;;;;69.65;27.42;;;9.80;99.90;;;;;;5062752;28;20031;-71
2023/01/06 03:37:54;;;;;;;53.95;25.10;;;9.80;99.90;;;;;;5044824;28;20029;-71
2023/01/06 03:40:41;;;;;;;59.30;27.75;;;9.80;99.90;;;;;;5063160;28;20433;-72
2023/01/06 03:43:51;;;;;;;62.85;25.25;;;9.80;99.90;;;;;;5045042;28;20028;-70
2023/01/06 03:46:40;;;;;;;61.65;25.98;;;9.80;99.90;;;;;;5022274;28;20038;-70
2023/01/06 03:49:20;;;;;;;51.42;23.88;;;9.80;99.90;;;;;;5023404;28;20026;-71
2023/01/06 03:51:58;;;;;;;50.90;23.10;;;9.80;99.90;;;;;;5053658;28;20116;-71
2023/01/06 03:55:01;;;;;;;56.20;25.25;;;9.90;99.90;;;;;;5062551;28;20032;-73
2023/01/06 03:57:48;;;;;;;60.03;24.48;;;9.90;99.90;;;;;;5062084;28;20041;-71
2023/01/06 04:00:19;;;;;;;55.22;23.70;;;9.90;99.90;;;;;;5062628;28;20115;-74
2023/01/06 04:02:46;;;;;;;58.08;22.92;;;9.90;99.90;;;;;;5062651;28;20036;-72
2023/01/06 04:05:15;;;;;;;57.92;25.10;;;9.90;99.90;;;;;;5061991;28;20033;-72
2023/01/06 04:07:42;;;;;;;56.85;24.90;;;9.90;99.90;;;;;;5063376;28;20017;-72
2023/01/06 04:10:09;;;;;;;52.95;24.35;;;9.90;99.90;;;;;;5063398;28;20017;-72
2023/01/06 04:12:37;;;;;;;49.08;23.35;;;9.90;99.90;;;;;;5063368;28;20033;-72
2023/01/06 04:15:09;;;;;;;49.83;23.27;;;9.90;99.90;;;;;;5063287;28;20093;-71
2023/01/06 04:17:36;;;;;;;50.28;23.05;;;9.90;99.90;;;;;;5062741;28;20044;-71
2023/01/06 04:20:02;;;;;;;43.05;20.67;;;9.90;99.90;;;;;;5044774;28;20025;-71
2023/01/06 04:22:28;;;;;;;47.17;21.63;;;9.90;99.90;;;;;;5062765;28;20095;-71
2023/01/06 04:24:53;;;;;;;49.30;22.83;;;9.90;99.90;;;;;;5062910;28;20029;-71
2023/01/06 04:27:19;;;;;;;45.80;20.42;;;9.90;99.90;;;;;;5063212;28;20470;-72
2023/01/06 04:29:45;;;;;;;47.88;19.90;;;9.90;99.90;;;;;;5063163;28;20028;-74
2023/01/06 04:32:10;;;;;;;45.17;21.15;;;9.90;99.90;;;;;;5044977;28;20021;-71
2023/01/06 04:34:36;;;;;;;44.13;20.63;;;9.90;99.90;;;;;;5062938;28;20047;-71
2023/01/06 04:37:01;;;;;;;41.08;19.45;;;9.90;99.90;;;;;;5062805;28;20041;-73
2023/01/06 04:39:27;;;;;;;45.65;19.70;;;9.90;99.90;;;;;;5062727;28;20021;-72
2023/01/06 04:41:52;;;;;;;42.42;20.02;;;9.90;99.90;;;;;;5062511;28;20991;-72
2023/01/06 04:44:18;;;;;;;53.65;21.52;;;9.90;99.90;;;;;;5061344;28;20060;-73
2023/01/06 04:46:44;;;;;;;44.53;18.17;;;9.90;99.90;;;;;;5062932;28;20021;-73
2023/01/06 04:49:09;;;;;;;46.55;21.20;;;9.90;99.90;;;;;;5062747;28;20067;-71
2023/01/06 04:51:35;;;;;;;48.30;21.55;;;9.90;99.90;;;;;;5044536;28;20024;-72
2023/01/06 04:54:00;;;;;;;49.15;22.27;;;9.90;99.90;;;;;;5062216;28;20025;-71
2023/01/06 04:56:26;;;;;;;41.85;18.88;;;9.90;99.90;;;;;;5062644;28;20025;-71
2023/01/06 04:58:56;;;;;;;44.97;21.30;;;9.90;99.90;;;;;;5062281;28;20112;-71
2023/01/06 05:01:23;;;;;;;45.65;18.83;;;9.90;99.90;;;;;;5061929;28;20025;-71
2023/01/06 05:03:49;;;;;;;48.30;20.95;;;9.90;99.90;;;;;;5061960;28;20029;-72
2023/01/06 05:06:15;;;;;;;37.38;18.60;;;9.90;99.90;;;;;;5044267;28;20028;-70
2023/01/06 05:08:42;;;;;;;37.42;19.95;;;9.90;99.90;;;;;;5061950;28;20032;-72
2023/01/06 05:11:19;;;;;;;40.67;19.35;;;9.90;99.90;;;;;;5062057;28;20033;-72
2023/01/06 05:13:45;;;;;;;41.83;17.90;;;9.90;99.90;;;;;;5062401;28;20028;-72
2023/01/06 05:16:17;;;;;;;38.40;20.17;;;9.90;99.90;;;;;;5061906;28;20029;-71
2023/01/06 05:18:43;;;;;;;39.80;19.83;;;10.00;99.90;;;;;;5061814;28;20076;-71
2023/01/06 05:21:09;;;;;;;40.92;19.23;;;10.00;99.90;;;;;;5043964;28;20028;-72
2023/01/06 05:23:36;;;;;;;34.53;17.90;;;10.00;99.90;;;;;;5061756;28;20048;-70
2023/01/06 05:26:02;;;;;;;45.75;22.40;;;10.00;99.90;;;;;;5043740;28;20025;-70
2023/01/06 05:28:28;;;;;;;42.90;21.85;;;10.00;99.90;;;;;;5043775;28;20104;-71
2023/01/06 05:30:59;;;;;;;41.42;21.30;;;10.00;99.90;;;;;;5043755;28;20021;-72
2023/01/06 05:33:25;;;;;;;38.67;21.80;;;10.00;99.90;;;;;;5061341;28;20024;-72
2023/01/06 05:36:00;;;;;;;46.38;22.20;;;10.00;99.90;;;;;;5061781;28;20633;-72
2023/01/06 05:38:26;;;;;;;42.42;21.88;;;10.00;99.90;;;;;;5042607;28;20033;-71
2023/01/06 05:40:52;;;;;;;40.65;21.38;;;10.00;99.90;;;;;;5061296;28;20041;-68
2023/01/06 05:43:22;;;;;;;45.22;20.42;;;10.00;99.90;;;;;;5061105;28;20024;-73
2023/01/06 05:45:48;;;;;;;45.22;21.95;;;10.00;99.90;;;;;;5044039;28;20051;-73
2023/01/06 05:48:14;;;;;;;44.50;20.27;;;10.00;99.90;;;;;;5043776;28;20017;-73
2023/01/06 05:50:39;;;;;;;44.70;21.55;;;10.10;99.90;;;;;;5061513;28;20112;-72
2023/01/06 05:53:05;;;;;;;50.42;22.45;;;10.00;99.90;;;;;;5061555;28;20078;-72
2023/01/06 05:55:30;;;;;;;37.70;19.75;;;10.00;99.90;;;;;;5042961;28;20032;-72
2023/01/06 05:57:56;;;;;;;49.67;23.20;;;10.00;99.90;;;;;;5061219;28;20091;-74
2023/01/06 06:00:22;;;;;;;50.00;22.05;;;10.00;99.90;;;;;;5059172;28;20033;-70
2023/01/06 06:02:47;;;;;;;38.30;21.67;;;10.00;99.90;;;;;;5059857;28;20411;-71
2023/01/06 06:05:13;;;;;;;43.03;20.40;;;10.00;99.90;;;;;;5059496;28;20025;-72
2023/01/06 06:07:38;;;;;;;39.60;18.55;;;10.00;99.90;;;;;;5058557;28;20052;-72
2023/01/06 06:10:04;;;;;;;41.08;19.83;;;10.00;99.90;;;;;;5060012;28;20036;-73
2023/01/06 06:12:30;;;;;;;35.67;18.63;;;9.90;99.90;;;;;;5061204;28;20047;-72
2023/01/06 06:14:56;;;;;;;43.05;19.20;;;9.90;99.90;;;;;;5061567;28;20103;-72
2023/01/06 06:17:22;;;;;;;36.03;17.42;;;10.00;99.90;;;;;;5043075;28;20043;-73
2023/01/06 06:19:47;;;;;;;35.05;17.67;;;9.90;99.90;;;;;;5058823;28;20111;-73
2023/01/06 06:22:13;;;;;;;35.97;17.15;;;9.90;99.90;;;;;;5035885;28;20147;-72
2023/01/06 06:24:39;;;;;;;37.65;18.48;;;9.90;99.90;;;;;;5052502;28;20013;-70
2023/01/06 06:27:05;;;;;;;34.45;17.30;;;9.90;99.90;;;;;;5051561;28;20037;-71
2023/01/06 06:29:30;;;;;;;32.80;15.65;;;10.00;99.90;;;;;;5050591;28;20021;-69
2023/01/06 06:31:56;;;;;;;34.55;15.32;;;9.90;99.90;;;;;;5039572;28;20040;-70
2023/01/06 06:34:21;;;;;;;31.20;14.18;;;9.90;99.90;;;;;;5041435;28;20287;-73
2023/01/06 06:36:47;;;;;;;32.47;15.13;;;9.90;99.90;;;;;;5050276;28;20029;-71
2023/01/06 06:39:12;;;;;;;39.03;15.65;;;9.90;99.90;;;;;;5053387;28;20029;-69
2023/01/06 06:41:38;;;;;;;32.28;16.17;;;9.90;99.90;;;;;;5053864;28;20109;-70
2023/01/06 06:44:04;;;;;;;27.55;14.25;;;9.90;99.90;;;;;;5050295;28;20032;-70
2023/01/06 06:46:29;;;;;;;32.83;14.45;;;10.00;99.90;;;;;;5051014;28;20565;-70
2023/01/06 06:48:55;;;;;;;28.38;13.80;;;9.90;99.90;;;;;;5055403;28;20036;-72
2023/01/06 06:51:22;;;;;;;30.45;12.98;;;10.00;99.90;;;;;;5051084;28;20032;-69
2023/01/06 06:53:48;;;;;;;28.63;13.57;;;10.00;99.90;;;;;;5053631;28;20032;-70
2023/01/06 06:56:15;;;;;;;31.08;13.82;;;10.00;99.90;;;;;;5055512;28;20089;-69
2023/01/06 06:58:41;;;;;;;24.83;13.55;;;10.00;99.90;;;;;;5050318;28;20041;-70
2023/01/06 07:01:09;;;;;;;27.33;12.43;;;10.00;99.90;;;;;;5051152;28;20033;-70
2023/01/06 07:03:35;;;;;;;25.67;13.27;;;10.00;99.90;;;;;;5056996;28;20035;-69
2023/01/06 07:06:02;;;;;;;26.00;13.18;;;10.00;99.90;;;;;;5038042;28;20049;-68
2023/01/06 07:08:28;;;;;;;21.58;10.73;;;10.00;99.90;;;;;;5041173;28;20120;-70
2023/01/06 07:10:54;;;;;;;26.13;12.82;;;10.00;99.90;;;;;;5063468;28;20089;-70
2023/01/06 07:13:20;;;;;;;27.63;12.70;;;10.00;99.90;;;;;;5056258;28;20025;-69
2023/01/06 07:15:45;;;;;;;25.38;11.43;;;10.00;99.90;;;;;;5060305;28;20021;-70
2023/01/06 07:18:11;;;;;;;23.13;10.80;;;10.00;99.90;;;;;;5061612;28;20119;-70
2023/01/06 07:20:38;;;;;;;25.27;10.73;;;10.00;99.90;;;;;;5055606;28;20035;-70
2023/01/06 07:23:04;;;;;;;27.50;11.02;;;10.00;99.90;;;;;;5039903;28;20063;-70
2023/01/06 07:25:30;;;;;;;26.65;11.23;;;10.00;99.90;;;;;;5062732;28;20025;-71
2023/01/06 07:27:57;;;;;;;21.85;9.70;;;10.00;99.90;;;;;;5064210;28;20107;-70
2023/01/06 07:30:24;;;;;;;19.80;9.40;;;10.00;99.90;;;;;;5063425;28;20021;-71
2023/01/06 07:32:50;;;;;;;22.13;10.45;;;10.00;99.90;;;;;;5059376;28;20029;-70
2023/01/06 07:35:16;;;;;;;22.50;9.32;;;10.00;99.90;;;;;;5062810;28;20029;-70
2023/01/06 07:37:42;;;;;;;25.65;8.68;;;10.00;99.90;;;;;;5062882;28;20143;-71
2023/01/06 07:40:08;;;;;;;19.58;8.10;;;10.10;99.90;;;;;;5063311;28;20036;-71
2023/01/06 07:42:37;;;;;;;22.95;8.82;;;10.10;99.90;;;;;;5045838;28;20078;-71
2023/01/06 07:45:03;;;;;;;19.27;8.50;;;10.10;99.90;;;;;;5062681;28;20097;-70
2023/01/06 07:47:29;;;;;;;19.50;8.80;;;10.10;99.90;;;;;;5045420;28;20044;-70
2023/01/06 07:49:55;;;;;;;18.40;8.32;;;10.10;99.90;;;;;;5064056;28;20021;-71
2023/01/06 07:52:20;;;;;;;17.23;8.02;;;10.00;99.90;;;;;;5047064;28;20093;-70
2023/01/06 07:54:46;;;;;;;13.65;7.68;;;10.00;99.90;;;;;;5063425;28;20122;-70
2023/01/06 07:57:11;;;;;;;13.20;6.22;;;9.90;99.90;;;;;;5064215;28;20539;-70
2023/01/06 07:59:37;;;;;;;16.50;7.70;;;9.90;99.90;;;;;;5062198;28;20029;-70
2023/01/06 08:02:02;;;;;;;16.15;6.75;;;9.90;99.90;;;;;;5061024;28;20386;-70
2023/01/06 08:04:28;;;;;;;17.13;7.78;;;9.80;99.90;;;;;;5061913;28;20040;-70
2023/01/06 08:06:54;;;;;;;17.27;7.78;;;9.80;99.90;;;;;;5062486;28;20044;-69
2023/01/06 08:09:19;;;;;;;20.40;7.80;;;9.80;99.90;;;;;;5064022;28;20020;-69
2023/01/06 08:11:45;;;;;;;19.40;7.50;;;9.80;99.90;;;;;;5064085;28;20017;-69
2023/01/06 08:14:15;;;;;;;15.95;6.75;;;9.80;99.90;;;;;;5062815;28;20029;-69
2023/01/06 08:16:41;;;;;;;18.83;7.82;;;9.80;99.90;;;;;;5045562;28;20036;-68
2023/01/06 08:19:06;;;;;;;15.57;6.80;;;9.80;99.90;;;;;;5062626;28;20025;-70
2023/01/06 08:21:32;;;;;;;15.98;6.70;;;9.70;99.90;;;;;;5063259;28;20527;-71
2023/01/06 08:23:57;;;;;;;16.08;7.47;;;9.70;99.90;;;;;;5063433;28;20047;-70
2023/01/06 08:26:23;;;;;;;15.00;5.30;;;9.70;99.90;;;;;;5063292;28;20036;-71
2023/01/06 08:28:49;;;;;;;15.52;7.18;;;9.70;99.90;;;;;;5063926;28;20055;-70
2023/01/06 08:31:16;;;;;;;17.08;7.75;;;9.70;99.90;;;;;;5063225;28;20017;-69
2023/01/06 08:33:42;;;;;;;16.95;7.32;;;9.70;99.90;;;;;;5063513;28;20111;-68
2023/01/06 08:36:10;;;;;;;21.73;8.85;;;9.70;99.90;;;;;;5061850;28;20418;-68
2023/01/06 08:38:36;;;;;;;10.65;5.78;;;9.80;99.90;;;;;;5045056;28;20029;-70
2023/01/06 08:41:03;;;;;;;11.45;5.20;;;9.70;99.90;;;;;;5063059;28;20475;-69
2023/01/06 08:43:30;;;;;;;12.45;5.53;;;9.80;99.90;;;;;;5061722;28;20031;-69
2023/01/06 08:46:00;;;;;;;16.13;6.50;;;9.70;99.90;;;;;;5062868;28;20013;-69
2023/01/06 08:48:26;;;;;;;10.65;4.95;;;9.70;99.90;;;;;;5061182;28;20055;-69
2023/01/06 08:50:52;;;;;;;14.07;6.32;;;9.70;99.90;;;;;;5062541;28;20021;-70
2023/01/06 08:53:18;;;;;;;19.30;6.43;;;9.70;99.90;;;;;;5061170;28;20174;-70
2023/01/06 08:55:43;;;;;;;13.45;5.45;;;9.70;99.90;;;;;;5060285;28;20051;-71
2023/01/06 08:58:10;;;;;;;10.98;5.78;;;9.60;99.90;;;;;;5058605;28;20049;-70
2023/01/06 09:00:38;;;;;;;15.68;7.03;;;9.60;99.90;;;;;;5062403;28;20021;-71
2023/01/06 09:03:04;;;;;;;12.20;6.13;;;9.60;99.90;;;;;;5056308;28;20036;-70
2023/01/06 09:05:29;;;;;;;16.48;6.82;;;9.60;99.90;;;;;;5062018;28;20028;-70
2023/01/06 09:07:55;;;;;;;11.65;5.20;;;9.60;99.90;;;;;;5054743;28;20040;-70
2023/01/06 09:10:21;;;;;;;13.18;6.57;;;9.60;99.90;;;;;;5060783;28;20110;-70
2023/01/06 09:12:47;;;;;;;10.40;5.28;;;9.50;99.90;;;;;;5059645;28;20033;-70
2023/01/06 09:15:12;;;;;;;10.63;5.32;;;9.60;99.90;;;;;;5058404;28;20065;-69
2023/01/06 09:17:38;;;;;;;15.32;7.47;;;9.60;99.90;;;;;;5061234;28;20047;-70
2023/01/06 09:20:04;;;;;;;15.13;7.15;;;9.60;99.90;;;;;;5061141;28;20024;-71
2023/01/06 09:22:30;;;;;;;10.70;6.72;;;9.60;99.90;;;;;;5060012;28;20564;-70
2023/01/06 09:24:55;;;;;;;12.40;7.80;;;9.50;99.90;;;;;;5043920;28;20025;-70
2023/01/06 09:27:21;;;;;;;16.05;8.07;;;9.60;99.90;;;;;;5043700;28;20071;-71
2023/01/06 09:29:47;;;;;;;11.75;6.40;;;9.50;99.90;;;;;;5060661;28;20029;-73
2023/01/06 09:32:12;;;;;;;14.90;8.07;;;9.60;99.90;;;;;;5060881;28;20123;-70
2023/01/06 09:34:38;;;;;;;19.25;9.35;;;9.60;99.90;;;;;;5059361;28;20105;-72
2023/01/06 09:37:04;;;;;;;16.85;9.23;;;9.60;99.90;;;;;;5041749;28;20124;-70
2023/01/06 09:39:29;;;;;;;12.73;7.35;;;9.60;99.90;;;;;;5043784;28;20033;-70
2023/01/06 09:42:10;;;;;;;16.02;8.65;;;9.60;99.90;;;;;;5060425;28;20025;-71
2023/01/06 09:44:39;;;;;;;16.85;7.22;;;9.60;99.90;;;;;;5060191;28;20025;-72
2023/01/06 09:47:10;;;;;;;12.60;7.38;;;9.60;99.90;;;;;;5060929;28;20033;-72
2023/01/06 09:49:58;;;;;;;14.63;7.65;;;9.70;99.90;;;;;;5061780;28;20399;-70
2023/01/06 09:52:36;;;;;;;15.55;6.18;;;9.70;99.90;;;;;;5039812;28;20021;-72
2023/01/06 09:55:06;;;;;;;12.15;6.70;;;9.70;99.90;;;;;;5061874;28;20025;-71
2023/01/06 09:57:39;;;;;;;16.23;6.40;;;9.70;99.90;;;;;;5042721;28;20044;-71
2023/01/06 10:00:21;;;;;;;9.85;5.90;;;9.70;99.90;;;;;;5061278;28;20056;-70
2023/01/06 10:02:47;;;;;;;7.10;4.93;;;9.70;99.90;;;;;;5060736;28;20021;-70
2023/01/06 10:05:32;;;;;;;8.88;4.55;;;9.60;99.90;;;;;;5061644;28;20040;-70
2023/01/06 10:08:11;;;;;;;6.88;3.50;;;9.70;99.90;;;;;;5043626;28;20037;-69
2023/01/06 10:11:03;;;;;;;7.53;3.58;;;9.60;99.90;;;;;;5061411;28;20021;-69
2023/01/06 10:13:36;;;;;;;10.15;3.72;;;9.60;99.90;;;;;;5060990;28;20017;-69
2023/01/06 10:16:18;;;;;;;5.05;3.28;;;9.60;99.90;;;;;;5061422;28;20025;-71
2023/01/06 10:18:55;;;;;;;6.03;3.25;;;9.60;99.90;;;;;;5061504;28;20078;-71
2023/01/06 10:21:41;;;;;;;8.93;3.28;;;9.50;99.90;;;;;;5060076;28;20033;-69
2023/01/06 10:24:12;;;;;;;7.30;3.10;;;9.50;99.90;;;;;;5058660;28;20120;-72
2023/01/06 10:26:49;;;;;;;8.40;3.50;;;9.50;99.90;;;;;;5054434;28;20040;-72
2023/01/06 10:29:17;;;;;;;9.77;3.08;;;9.50;99.90;;;;;;5057138;28;20025;-71
2023/01/06 10:31:45;;;;;;;6.88;2.83;;;9.80;99.90;;;;;;5061412;28;20021;-69
2023/01/06 10:34:21;;;;;;;3.60;2.45;;;10.20;99.90;;;;;;5058411;28;20033;-69
2023/01/06 10:36:53;;;;;;;2.75;1.92;;;10.70;99.90;;;;;;5058977;28;20029;-68
2023/01/06 10:39:23;;;;;;;6.63;2.10;;;11.10;99.90;;;;;;5061664;28;20475;-69
2023/01/06 10:41:51;;;;;;;4.78;1.60;;;11.50;99.90;;;;;;5063669;28;20017;-71
2023/01/06 10:44:18;;;;;;;4.03;1.40;;;11.80;99.90;;;;;;5064744;28;20029;-68
2023/01/06 10:46:46;;;;;;;3.60;1.20;;;12.20;99.90;;;;;;5065309;28;20489;-70
2023/01/06 10:49:17;;;;;;;4.03;1.80;;;12.40;99.90;;;;;;5064778;28;20033;-70
2023/01/06 10:51:50;;;;;;;3.47;1.30;;;12.50;99.90;;;;;;5047528;28;20031;-71
2023/01/06 10:54:21;;;;;;;3.90;1.20;;;12.60;99.90;;;;;;5056161;28;20017;-67
2023/01/06 10:56:52;;;;;;;5.97;1.30;;;12.80;99.90;;;;;;5065246;28;20482;-70
2023/01/06 10:59:18;;;;;;;3.72;0.93;;;12.80;99.90;;;;;;5065359;28;20045;-70
2023/01/06 11:01:53;;;;;;;4.20;1.38;;;12.70;99.90;;;;;;5064864;28;20367;-68
2023/01/06 11:04:20;;;;;;;3.33;1.15;;;12.50;99.90;;;;;;5065846;28;20020;-68
2023/01/06 11:06:53;;;;;;;4.00;1.30;;;12.20;99.90;;;;;;5047376;28;20060;-68
2023/01/06 11:09:30;;;;;;;2.85;0.82;;;12.00;99.90;;;;;;5063279;28;20381;-69
2023/01/06 11:12:01;;;;;;;2.10;0.88;;;12.00;99.90;;;;;;5063889;28;20085;-69
2023/01/06 11:14:31;;;;;;;5.63;0.90;;;12.20;99.90;;;;;;5063886;28;20084;-69
2023/01/06 11:17:02;;;;;;;3.85;1.10;;;12.60;99.90;;;;;;5062487;28;20433;-68
2023/01/06 11:19:38;;;;;;;5.03;0.93;;;13.00;99.90;;;;;;5063717;28;20029;-68
2023/01/06 11:22:25;;;;;;;4.88;0.77;;;13.10;99.90;;;;;;5044879;28;20072;-72
2023/01/06 11:24:53;;;;;;;4.88;1.20;;;13.30;99.90;;;;;;5062105;28;20029;-66
2023/01/06 11:27:18;;;;;;;8.13;1.25;;;13.50;99.90;;;;;;5045500;28;20376;-69
2023/01/06 11:29:44;;;;;;;9.18;0.85;;;13.70;99.90;;;;;;5063404;28;20045;-68
2023/01/06 11:32:25;;;;;;;4.97;0.95;;;13.80;99.90;;;;;;5061869;28;20051;-68
2023/01/06 11:35:02;;;;;;;8.65;1.30;;;13.90;99.90;;;;;;5060542;28;20175;-70
2023/01/06 11:37:38;;;;;;;2.65;1.08;;;13.90;99.90;;;;;;5062711;28;20040;-69
2023/01/06 11:40:25;;;;;;;3.92;0.95;;;14.20;99.90;;;;;;5064616;28;20114;-67
2023/01/06 11:42:53;;;;;;;3.35;1.00;;;14.20;99.90;;;;;;5063431;28;20049;-70
2023/01/06 11:45:47;;;;;;;7.10;1.20;;;13.90;99.90;;;;;;5063529;28;20032;-72
2023/01/06 11:48:28;;;;;;;6.93;1.02;;;13.10;99.90;;;;;;5062388;28;20541;-67
2023/01/06 11:50:59;;;;;;;6.03;1.00;;;12.60;99.90;;;;;;5063448;28;20052;-71
2023/01/06 11:53:26;;;;;;;7.35;1.15;;;12.30;99.90;;;;;;5062794;28;20059;-69
2023/01/06 11:56:02;;;;;;;11.93;1.05;;;12.10;99.90;;;;;;5063587;28;20453;-70
2023/01/06 11:58:47;;;;;;;5.30;1.13;;;12.20;99.90;;;;;;5062524;28;20041;-70
2023/01/06 12:01:36;;;;;;;4.60;0.90;;;12.10;99.90;;;;;;5063732;28;20025;-68
2023/01/06 12:04:34;;;;;;;3.88;1.00;;;12.00;99.90;;;;;;5063015;28;20032;-70
2023/01/06 12:07:06;;;;;;;9.80;1.50;;;11.70;99.90;;;;;;5019958;28;20141;-69
2023/01/06 12:09:37;;;;;;;3.63;1.20;;;11.80;99.90;;;;;;5063077;28;20036;-68
2023/01/06 12:12:08;;;;;;;3.92;0.80;;;12.30;99.90;;;;;;5062773;28;20025;-67
2023/01/06 12:14:36;;;;;;;6.43;1.30;;;12.80;99.90;;;;;;5062832;28;20080;-70
2023/01/06 12:17:11;;;;;;;3.20;1.00;;;13.30;99.90;;;;;;5044906;28;20035;-69
2023/01/06 12:19:56;;;;;;;3.80;1.23;;;13.50;99.90;;;;;;5062485;28;20047;-69
2023/01/06 12:22:58;;;;;;;4.80;1.15;;;13.70;99.90;;;;;;5055551;28;20065;-68
2023/01/06 12:25:25;;;;;;;6.00;1.10;;;13.90;99.90;;;;;;5062507;28;20419;-69
2023/01/06 12:27:56;;;;;;;4.22;0.95;;;14.10;99.90;;;;;;5062946;28;20021;-70
2023/01/06 12:30:32;;;;;;;4.93;1.13;;;14.20;99.90;;;;;;5061251;28;20088;-70
2023/01/06 12:33:11;;;;;;;9.52;1.40;;;14.50;99.90;;;;;;5062244;28;20032;-71
2023/01/06 12:35:39;;;;;;;5.80;1.25;;;14.60;99.90;;;;;;5043808;28;20029;-72
2023/01/06 12:38:43;;;;;;;7.55;1.30;;;14.90;99.90;;;;;;5044205;28;20037;-70
2023/01/06 12:41:15;;;;;;;5.00;1.30;;;15.20;99.90;;;;;;5058306;28;20077;-70
2023/01/06 12:43:46;;;;;;;5.50;0.82;;;15.00;99.90;;;;;;5044397;28;20025;-71
2023/01/06 12:46:20;;;;;;;6.10;1.30;;;14.70;99.90;;;;;;5060353;28;20025;-68
2023/01/06 12:49:02;;;;;;;6.28;1.30;;;14.60;99.90;;;;;;5061082;28;20037;-69
2023/01/06 12:51:43;;;;;;;10.27;1.55;;;14.50;99.90;;;;;;5054886;28;20041;-69
2023/01/06 12:54:27;;;;;;;6.78;1.05;;;14.60;99.90;;;;;;5061699;28;20024;-70
2023/01/06 12:57:08;;;;;;;6.97;1.27;;;14.40;99.90;;;;;;5060868;28;20033;-71